Startpagina
METAR-TAF:

METAR-TAF

Vliegvelden :

Xi'an, China

Internationale luchthaven Xi'an Xianyang

breedte: 34-26N, lengte: 108-45E, hoogte: 479 m

Actueel weer

Dit bericht is 1 uur en het 6 minuten geleden gemaakt, om 03:00 UTC
Wind 14 kt uit het oostnoordoosten
Temperatuur 14°C
Vochtigheid 82%
Druk 1022 hPa
Zicht: 3000 m
nevel

METAR: ZLXY 240300Z 06007MPS 3000 BR NSC 14/11 Q1022 NOSIG

Tijdstip: 12:06 (04:06 UTC)

Verwachting

Dit bericht is 9 uur en het 0 minuten geleden gemaakt, om 19:06 UTC
Verwachting geldig van 24 om 00 UTC tot 24 om 24 UTC
Wind 10 kt uit het oostnoordoosten met uitschieters tot 19 kt
Zicht: 2000 m
nevel
Wijzigt naar
van 24 om 02 UTC tot 24 om 03 UTC
Zicht: 3000 m
Wijzigt naar
van 24 om 15 UTC tot 24 om 16 UTC
Zicht: 1500 m
lichte regen, nevel

TAF: ZLXY 231906Z 2400/2424 06005G10MPS 2000 BR NSC TX18/2407Z TN12/2423Z BECMG 2402/2403 3000 BECMG 2415/2416 1500 -RA BR

Waarnemingen en weersverwachtingen van meer dan 4000 vliegvelden (METAR en TAF).

De beschikbare stations zijn de gele en rode punten op de kaart.

Ga met uw muis naar het station om de naam te zien.

Klik dan om waarnemingen en weersverwachtingen te zien.

kaart wijzigen: klik op de groene knoppen met een zwart kruis om in te zoomen, op de groene knop met een streepje om uit te zoomen of op de groene pijlen voor aangrenzende kaarten.


METAR-TAF: